Latest Weather Observations for Glen Innes Airport

IDN60801

Issued at 4:32 pm EST Tuesday 7 July 2015 (issued every 30 minutes, with the page automatically refreshed every 10 minutes)

About weather observations | Map of weather stations | Latest weather observations for NSW | Other Formats
Station Details ID: 056243 Name: GLEN INNES AIRPORT AWS Lat: -29.68 Lon: 151.69 Height: 1044.3 m
Data from the previous 72 hours. | See also: Recent months for locations in New South Wales
Date/Time
EST
Temp
°C
App
Temp
°C
Dew
Point
Rel
Hum
%
Delta-T
°C
Wind Press
QNH
hPa
Press
MSL
hPa
Rain
since 9 am
mm
Dir
 
Spd
km/h
Gust
km/h
Spd
kts
Gust
kts
07/04:30pm 9.7 4.8 -0.8 48 4.4 SW 15 19 8 10 1019.9 1020.5 0.0
07/04:00pm 10.9 5.3 0.0 47 4.7 SW 19 22 10 12 1019.5 1020.0 0.0
07/03:30pm 11.3 5.5 -1.5 41 5.4 WSW 19 24 10 13 1019.2 1019.7 0.0
07/03:00pm 12.0 7.0 -1.5 39 5.7 SW 15 22 8 12 1019.1 1019.6 0.0
07/02:30pm 12.1 6.1 -1.4 39 5.7 SW 20 28 11 15 1018.8 1019.4 0.0
07/02:00pm 12.2 5.7 -2.4 36 6.1 WSW 22 32 12 17 1018.7 1019.2 0.0
07/01:30pm 12.3 6.4 -0.9 40 5.7 WSW 20 28 11 15 1018.6 1019.1 0.0
07/01:00pm 12.5 6.1 -1.8 37 6.0 W 22 32 12 17 1018.5 1019.0 0.0
07/12:30pm 12.3 7.4 -0.6 41 5.6 W 15 20 8 11 1018.5 1019.0 0.0
07/12:00pm 12.1 6.9 -2.9 35 6.1 SW 15 22 8 12 1018.8 1019.4 0.0
07/11:30am 12.0 7.4 -1.2 40 5.6 WSW 13 20 7 11 1019.2 1019.7 0.0
07/11:00am 11.4 6.4 -1.4 41 5.4 S 15 19 8 10 1019.5 1020.0 0.0
07/10:30am 10.6 6.5 -0.2 47 4.6 SSE 11 15 6 8 1019.7 1020.3 0.0
07/10:00am 9.2 5.4 -0.4 51 4.0 SE 9 13 5 7 1019.9 1020.5 0.0
07/09:30am 8.0 3.9 -0.2 56 3.4 SE 11 15 6 8 1019.9 1020.5 0.0
07/09:00am 6.1 1.6 -0.6 62 2.7 ESE 13 15 7 8 1020.0 1020.6 0.0
07/08:30am 4.2 0.3 -1.4 67 2.2 SE 9 15 5 8 1019.7 1020.3 0.0
07/08:00am 0.4 -3.5 -1.7 86 0.8 E 9 11 5 6 1019.4 1019.9 0.0
07/07:30am -3.0 -5.6 -4.6 89 0.4 CALM 0 0 0 0 1019.1 1019.6 0.0
07/07:00am -3.6 -7.9 -4.7 92 0.2 ESE 9 11 5 6 1018.7 1019.2 0.0
07/06:30am -5.0 -9.4 -6.2 91 0.2 E 9 11 5 6 1018.3 1018.8 0.0
07/06:00am -4.2 -8.5 -4.9 95 0.1 E 9 9 5 5 1018.1 1018.6 0.0
07/05:30am -3.9 -8.2 -4.7 94 0.1 E 9 11 5 6 1017.8 1018.3 0.0
07/05:00am -4.0 -8.3 -5.0 93 0.2 E 9 11 5 6 1017.7 1018.2 0.0
07/04:30am -4.3 -8.1 -5.3 93 0.1 E 6 7 3 4 1017.7 1018.2 0.0
07/04:00am -3.5 -7.2 -4.8 91 0.3 ESE 6 7 3 4 1017.5 1018.0 0.0
07/03:30am -3.8 -8.1 -5.0 91 0.2 ESE 9 11 5 6 1017.5 1018.0 0.0
07/03:00am -2.8 -6.5 -5.0 85 0.6 S 6 7 3 4 1017.5 1018.0 0.0
07/02:30am -2.1 -5.8 -3.1 93 0.3 E 7 9 4 5 1017.5 1018.0 0.0
07/02:00am -2.3 -5.9 -4.0 88 0.5 SW 6 11 3 6 1017.6 1018.1 0.0
07/01:30am -0.6 -4.9 -1.9 91 0.4 WSW 11 13 6 7 1017.6 1018.1 0.0
07/01:00am 1.0 -3.6 -0.8 88 0.7 WSW 13 15 7 8 1017.7 1018.2 0.0
07/12:30am 2.4 -2.0 0.1 85 0.9 WSW 13 20 7 11 1017.7 1018.2 0.0
07/12:00am 3.0 -1.3 0.9 86 0.9 WSW 13 19 7 10 1017.8 1018.3 0.0
 
Date/Time
EST
Temp
°C
App
Temp
°C
Dew
Point
Rel
Hum
%
Delta-T
°C
Wind Press
QNH
hPa
Press
MSL
hPa
Rain
since 9 am
mm
Dir
 
Spd
km/h
Gust
km/h
Spd
kts
Gust
kts
06/11:30pm 3.5 -1.2 1.1 84 1.0 WSW 15 20 8 11 1017.8 1018.3 0.0
06/11:00pm 4.0 -1.1 1.0 81 1.2 WSW 17 20 9 11 1017.8 1018.3 0.0
06/10:30pm 4.3 -1.1 1.3 81 1.3 W 19 20 10 11 1018.1 1018.6 0.0
06/10:00pm 5.0 -0.8 2.2 82 1.2 W 22 28 12 15 1017.9 1018.5 0.0
06/09:30pm 4.9 -0.9 2.1 82 1.2 W 22 26 12 14 1017.8 1018.3 0.0
06/09:00pm 5.3 -0.5 2.1 80 1.4 W 22 30 12 16 1017.6 1018.1 0.0
06/08:30pm 5.8 0.0 2.1 77 1.6 W 22 30 12 16 1017.5 1018.0 0.0
06/08:00pm 5.5 0.0 2.0 78 1.5 W 20 24 11 13 1017.5 1018.0 0.0
06/07:30pm 6.0 0.1 1.7 74 1.8 W 22 26 12 14 1017.6 1018.1 0.0
06/07:00pm 6.8 0.9 1.9 71 2.1 W 22 28 12 15 1017.7 1018.2 0.0
06/06:30pm 7.2 1.8 2.5 72 2.1 W 20 28 11 15 1017.8 1018.3 0.0
06/06:00pm 7.4 2.7 3.1 74 1.9 W 17 20 9 11 1017.6 1018.1 0.0
06/05:30pm 8.2 3.1 3.1 70 2.3 W 19 22 10 12 1017.4 1017.9 0.0
06/05:00pm 10.3 3.8 2.7 59 3.5 WNW 26 33 14 18 1017.1 1017.5 0.0
06/04:30pm 11.3 4.0 2.3 54 4.1 WNW 30 39 16 21 1017.0 1017.4 0.0
06/04:00pm 12.3 4.8 3.3 54 4.2 W 32 39 17 21 1016.7 1017.2 0.0
06/03:30pm 12.5 4.2 2.4 50 4.7 WNW 35 44 19 24 1016.6 1017.1 0.0
06/03:00pm 13.2 5.1 3.3 51 4.7 WNW 35 46 19 25 1016.7 1017.2 0.0
06/02:30pm 13.3 5.7 3.9 53 4.5 WNW 33 46 18 25 1016.8 1017.3 0.0
06/02:00pm 13.1 5.6 3.5 52 4.6 WNW 32 43 17 23 1016.8 1017.3 0.0
06/01:30pm 13.3 5.3 3.7 52 4.6 WNW 35 46 19 25 1017.0 1017.4 0.0
06/01:00pm 13.2 5.4 2.7 49 4.9 WNW 33 44 18 24 1017.3 1017.8 0.0
06/12:30pm 12.9 4.2 2.2 48 4.9 WNW 37 54 20 29 1017.9 1018.5 0.0
06/12:00pm 12.9 4.6 2.2 48 4.9 WNW 35 46 19 25 1018.5 1019.0 0.0
06/11:30am 12.4 3.9 1.1 46 5.1 WNW 35 46 19 25 1019.1 1019.6 0.0
06/11:00am 12.2 3.5 1.8 49 4.7 WNW 37 46 20 25 1019.3 1019.8 0.0
06/10:30am 11.9 4.5 1.8 50 4.6 WNW 30 41 16 22 1019.6 1020.2 0.0
06/10:00am 10.9 5.0 3.7 61 3.4 NW 24 32 13 17 1020.0 1020.6 0.0
06/09:30am 9.8 4.6 3.3 64 3.0 WNW 20 28 11 15 1020.3 1020.8 0.0
06/09:00am 8.6 4.9 4.6 76 1.9 NW 13 17 7 9 1020.2 1020.7 0.0
06/08:30am 6.7 4.2 4.0 83 1.2 W 6 7 3 4 1020.2 1020.7 0.0
06/08:00am 2.9 1.3 2.6 98 0.1 CALM 0 0 0 0 1020.2 1020.7 0.0
06/07:30am 0.4 -1.6 0.1 98 0.1 CALM 0 0 0 0 1020.2 1020.7 0.0
06/07:00am -0.2 -2.3 -0.5 98 0.1 CALM 0 0 0 0 1019.9 1020.5 0.0
06/06:48am 0.0 -2.0 -0.3 98 0.1 CALM 0 0 0 0 1019.9 1020.5 0.0
06/06:30am 0.3 -1.7 0.2 99 0.0 CALM 0 0 0 0 1019.7 1020.3 0.0
06/06:23am 0.1 -1.9 -0.2 98 0.1 CALM 0 0 0 0 1019.7 1020.3 0.0
06/06:19am -0.1 -2.1 -0.4 98 0.1 CALM 0 0 0 0 1019.7 1020.3 0.0
06/06:00am 1.2 -0.6 0.9 98 0.1 CALM 0 0 0 0 1019.6 1020.2 0.0
06/05:30am 1.0 -0.8 0.9 99 0.0 CALM 0 0 0 0 1019.6 1020.2 0.0
06/05:07am 0.5 -1.4 0.4 99 0.0 CALM 0 0 0 0 1019.5 1020.0 0.0
06/05:00am 0.5 -1.4 0.4 99 0.0 CALM 0 0 0 0 1019.6 1020.2 0.0
06/04:56am 0.2 -1.8 0.1 99 0.0 CALM 0 0 0 0 1019.6 1020.2 0.0
06/04:30am -0.7 -2.8 -1.0 98 0.1 CALM 0 0 0 0 1019.7 1020.3 0.0
06/04:13am -0.7 -2.8 -1.0 98 0.1 CALM 0 0 0 0 1019.7 1020.3 0.0
06/04:09am -0.7 -2.8 -0.8 99 0.0 CALM 0 0 0 0 1019.7 1020.3 0.0
06/04:00am -1.0 -3.2 -1.3 98 0.1 CALM 0 0 0 0 1019.8 1020.4 0.0
06/03:30am -1.1 -3.3 -1.4 98 0.1 CALM 0 0 0 0 1019.9 1020.5 0.0
06/03:24am -1.2 -3.4 -1.5 98 0.1 CALM 0 0 0 0 1020.0 1020.6 0.0
06/03:02am -1.0 -3.2 -1.3 98 0.1 CALM 0 0 0 0 1020.0 1020.6 0.0
06/03:00am -0.9 -3.1 -1.2 98 0.1 CALM 0 0 0 0 1020.0 1020.6 0.0
06/02:42am -0.9 -3.1 -1.2 98 0.1 CALM 0 0 0 0 1020.2 1020.7 0.0
06/02:40am -0.8 -2.9 -1.1 98 0.1 CALM 0 0 0 0 1020.2 1020.7 0.0
06/02:30am -0.5 -2.6 -0.6 99 0.0 CALM 0 0 0 0 1020.2 1020.7 0.0
06/02:26am -0.6 -2.7 -0.7 99 0.0 CALM 0 0 0 0 1020.2 1020.7 0.0
06/02:08am -1.7 -4.0 -2.0 98 0.0 CALM 0 0 0 0 1020.4 1020.9 0.0
06/02:00am -2.0 -4.3 -2.3 98 0.0 CALM 0 0 0 0 1020.4 1020.9 0.0
06/01:57am -2.3 -4.6 -2.7 97 0.0 CALM 0 0 0 0 1020.5 1021.1 0.0
06/01:55am -2.5 -4.9 -2.9 97 0.0 CALM 0 0 0 0 1020.5 1021.1 0.0
06/01:38am -1.8 -4.1 -2.2 97 0.1 CALM 0 0 0 0 1020.7 1021.3 0.0
06/01:31am -1.8 -4.1 -2.2 97 0.1 CALM 0 0 0 0 1020.8 1021.4 0.0
06/01:30am -1.7 -4.0 -2.1 97 0.1 CALM 0 0 0 0 1020.8 1021.4 0.0
06/01:04am -1.3 -3.5 -1.7 97 0.1 CALM 0 0 0 0 1021.0 1021.6 0.0
06/01:00am -1.8 -4.1 -2.4 96 0.1 CALM 0 0 0 0 1021.0 1021.6 0.0
06/12:30am -2.1 -4.5 -2.8 95 0.1 CALM 0 0 0 0 1021.2 1021.7 0.0
06/12:00am -2.0 -4.3 -2.7 95 0.2 CALM 0 4 0 2 1021.0 1021.6 0.0
 
Date/Time
EST
Temp
°C
App
Temp
°C
Dew
Point
Rel
Hum
%
Delta-T
°C
Wind Press
QNH
hPa
Press
MSL
hPa
Rain
since 9 am
mm
Dir
 
Spd
km/h
Gust
km/h
Spd
kts
Gust
kts
05/11:30pm -0.5 -3.4 -0.9 97 0.1 SE 4 6 2 3 1021.0 1021.6 0.0
05/11:00pm -1.6 -5.1 -2.6 93 0.3 SE 6 6 3 3 1021.2 1021.7 0.0
05/10:30pm -0.7 -3.6 -1.4 95 0.2 SSE 4 9 2 5 1021.5 1022.1 0.0
05/10:00pm -0.1 -2.3 -1.5 90 0.5 CALM 0 0 0 0 1021.7 1022.3 0.0
05/09:30pm 0.5 -1.6 -0.5 93 0.4 CALM 0 0 0 0 1021.7 1022.3 0.0
05/09:00pm 0.3 -1.9 -1.3 89 0.6 CALM 0 0 0 0 1021.9 1022.5 0.0
05/08:30pm 0.5 -1.6 -0.9 90 0.6 CALM 0 0 0 0 1021.9 1022.5 0.0
05/08:00pm 1.5 -0.5 0.2 91 0.5 CALM 0 0 0 0 1021.8 1022.4 0.0
05/07:30pm 1.0 -1.1 -0.9 87 0.7 CALM 0 0 0 0 1021.7 1022.3 0.0
05/07:00pm 2.2 0.1 -0.7 81 1.1 CALM 0 0 0 0 1021.5 1022.1 0.0
05/06:30pm 4.7 2.9 1.2 78 1.5 CALM 0 0 0 0 1021.3 1021.9 0.0
05/06:00pm 5.7 2.7 0.5 69 2.2 WNW 6 9 3 5 1020.8 1021.4 0.0
05/05:30pm 7.0 3.6 1.7 69 2.3 WNW 9 11 5 6 1021.0 1021.6 0.0
05/05:00pm 9.4 4.9 2.3 61 3.2 WNW 15 19 8 10 1021.0 1021.6 0.0
05/04:30pm 11.5 7.1 2.8 55 4.0 WNW 15 19 8 10 1020.8 1021.4 0.0
05/04:00pm 12.2 6.8 2.6 52 4.4 WNW 20 28 11 15 1020.8 1021.4 0.0
05/03:30pm 12.7 7.5 3.4 53 4.4 WNW 20 28 11 15 1020.8 1021.4 0.0
05/03:00pm 13.2 7.7 2.1 47 5.1 WNW 20 30 11 16 1021.0 1021.6 0.0
05/02:30pm 13.1 6.8 1.5 45 5.3 W 24 32 13 17 1021.0 1021.6 0.0
05/02:00pm 13.1 6.9 2.1 47 5.1 WNW 24 32 13 17 1021.0 1021.6 0.0
05/01:30pm 13.0 5.9 1.4 45 5.3 WNW 28 37 15 20 1021.3 1021.9 0.0
05/01:00pm 13.0 6.3 1.7 46 5.2 WNW 26 32 14 17 1021.5 1022.1 0.0
05/12:30pm 13.0 6.0 1.7 46 5.2 WNW 28 35 15 19 1021.7 1022.3 0.0
05/12:00pm 12.8 6.3 2.4 49 4.8 WNW 26 35 14 19 1022.2 1022.8 0.0
05/11:30am 12.2 6.1 2.9 53 4.3 WNW 24 32 13 17 1022.7 1023.3 0.0
05/11:00am 11.2 4.3 2.8 56 3.9 WNW 28 39 15 21 1023.0 1023.7 0.0
05/10:30am 12.1 5.5 4.3 59 3.7 WNW 28 39 15 21 1023.4 1024.0 0.0
05/10:00am 11.3 5.9 4.5 63 3.2 WNW 22 30 12 16 1023.5 1024.1 0.0
05/09:30am 10.0 7.2 5.2 72 2.3 NW 9 13 5 7 1023.5 1024.1 0.0
05/09:00am 7.5 5.9 4.5 81 1.4 N 2 7 1 4 1023.4 1024.0 0.0
05/08:30am 4.2 2.7 3.0 92 0.5 CALM 0 0 0 0 1023.3 1023.9 0.0
05/08:00am 0.3 -2.8 -0.1 97 0.2 ESE 6 6 3 3 1023.1 1023.8 0.0
05/07:30am -2.1 -5.6 -2.8 95 0.1 ESE 6 7 3 4 1023.0 1023.7 0.0
05/07:00am -2.0 -5.7 -2.7 95 0.2 ESE 7 9 4 5 1022.9 1023.6 0.0
05/06:30am -2.1 -5.8 -3.1 93 0.3 ESE 7 7 4 4 1022.7 1023.3 0.0
05/06:00am -1.1 -4.5 -1.7 96 0.2 ESE 6 6 3 3 1022.5 1023.1 0.0
05/05:30am -1.2 -4.7 -1.6 97 0.1 ESE 7 7 4 4 1022.4 1023.0 0.0
05/05:00am -1.3 -4.8 -1.7 97 0.1 ESE 7 9 4 5 1022.2 1022.8 0.0
05/04:30am -1.5 -5.5 -1.9 97 0.1 ESE 9 11 5 6 1022.2 1022.8 0.0
05/04:00am -2.1 -5.6 -2.5 97 0.0 SE 6 7 3 4 1022.0 1022.6 0.0
05/03:30am -2.1 -5.8 -2.5 97 0.0 SE 7 9 4 5 1022.0 1022.6 0.0
05/03:00am -2.5 -6.2 -3.0 96 0.1 SE 7 9 4 5 1022.3 1022.9 0.0
05/02:30am -2.4 -5.9 -3.2 94 0.2 ESE 6 7 3 4 1022.5 1023.1 0.0
05/02:00am -1.5 -5.1 -2.1 96 0.1 SE 7 9 4 5 1022.7 1023.3 0.0
05/01:30am -0.7 -4.2 -1.5 94 0.3 SSW 7 11 4 6 1022.9 1023.6 0.0
05/01:00am 0.1 -2.7 -0.7 94 0.3 ESE 4 7 2 4 1023.0 1023.7 0.0
05/12:30am 0.2 -3.0 -0.6 94 0.3 ESE 6 7 3 4 1022.8 1023.4 0.0
05/12:00am 0.5 -2.9 -0.4 94 0.3 ESE 7 9 4 5 1023.0 1023.7 0.0
 
Date/Time
EST
Temp
°C
App
Temp
°C
Dew
Point
Rel
Hum
%
Delta-T
°C
Wind Press
QNH
hPa
Press
MSL
hPa
Rain
since 9 am
mm
Dir
 
Spd
km/h
Gust
km/h
Spd
kts
Gust
kts
04/11:30pm 0.4 -3.0 -0.3 95 0.3 SE 7 9 4 5 1023.1 1023.8 0.0
04/11:00pm 1.2 -0.7 0.6 96 0.2 CALM 0 0 0 0 1023.0 1023.7 0.0
04/10:30pm 0.1 -2.0 -1.0 92 0.4 CALM 0 0 0 0 1023.0 1023.7 0.0
04/10:00pm -0.3 -3.6 -1.6 91 0.5 SE 6 7 3 4 1023.0 1023.7 0.0
04/09:30pm 1.0 -1.0 -0.3 91 0.5 CALM 0 0 0 0 1023.0 1023.7 0.0
04/09:00pm 0.7 -2.7 -0.9 89 0.6 E 7 11 4 6 1023.1 1023.8 0.0
04/08:30pm 1.5 -1.9 -0.4 87 0.7 SSW 7 9 4 5 1023.1 1023.8 0.0
04/08:00pm 1.8 -0.1 0.6 92 0.5 CALM 0 4 0 2 1023.3 1023.9 0.0
04/07:30pm 1.1 -2.2 -1.0 86 0.8 WSW 6 7 3 4 1023.0 1023.7 0.0
04/07:00pm 3.0 -0.6 0.7 85 0.9 WSW 9 11 5 6 1022.8 1023.4 0.0
04/06:30pm 2.5 -0.7 -0.4 81 1.1 WSW 6 7 3 4 1022.6 1023.2 0.0
04/06:00pm 4.5 0.9 0.8 77 1.5 WSW 9 11 5 6 1022.3 1022.9 0.0
04/05:30pm 6.5 2.7 1.8 72 2.0 WSW 11 13 6 7 1022.4 1023.0 0.0
04/05:00pm 7.9 3.4 2.2 67 2.5 WSW 15 19 8 10 1022.3 1022.9 0.0

Other Formats:

Comma delimited format used in spreadsheet applications
http://www.bom.gov.au/fwo/IDN60801/IDN60801.94588.axf

JavaScript Object Notation format (JSON) in row-major order
http://www.bom.gov.au/fwo/IDN60801/IDN60801.94588.json